Putnam Township, Michigan
Current Conditions -  °F | °C
As of 2:15 AM on Friday 28 Nov 2014 (Local Time) from KOZW Reporting Station
Scattered Clouds Scattered Clouds  
Wind Chill: 15°   Ceiling: Unl
Heat Index: 15°   Visibility: 10mi
Dew Point:   Wind: 3mph
Humidity: 70%   Direction: 300°WNW
Pressure: 30.3"   Gusts: NA
Location:  42.4646°N, 83.948°W
Report Text: KOZW 280715Z AUTO 30003KT 10SM SCT034 M09/M14 A3030 RMK AO2 T10921138
Loading
Personal Weather Stations






























Interactive Weather Map New forecast layout! Learn more

10-Day Weather Forecast

Advertisements
Track Severe Weather on mobile